Time;durP1;ratioP1;P1;durP2;ratioP2;P2;SDS_P1;SDS_P2;PMS_P1;PMS_P2;Temp;Humidity;BMP_temperature;BMP_pressure;BME280_temperature;BME280_humidity;BME280_pressure;Samples;Min_cycle;Max_cycle;Signal;HPM_P1;HPM_P2
2022/03/12 00:07:46;;;;;;;8.65;3.42;;;9.90;56.50;;;;;;6789612;87;20264;-79
2022/03/12 00:17:47;;;;;;;8.50;3.90;;;9.90;55.90;;;;;;6792033;87;20183;-79
2022/03/12 00:27:48;;;;;;;6.90;3.35;;;9.90;55.60;;;;;;6780116;87;20206;-76
2022/03/12 00:37:49;;;;;;;7.62;4.25;;;9.80;55.70;;;;;;6788976;87;20163;-80
2022/03/12 00:47:50;;;;;;;9.47;4.07;;;9.70;55.80;;;;;;6794627;87;20201;-79
2022/03/12 00:57:50;;;;;;;7.87;4.30;;;9.70;56.00;;;;;;6787269;87;21427;-78
2022/03/12 01:07:51;;;;;;;8.57;3.95;;;9.70;56.30;;;;;;6787346;87;20551;-77
2022/03/12 01:17:51;;;;;;;8.02;3.90;;;9.50;56.10;;;;;;6787446;87;20223;-78
2022/03/12 01:27:52;;;;;;;8.40;4.30;;;9.50;56.80;;;;;;6787562;87;20357;-78
2022/03/12 01:37:53;;;;;;;7.87;4.45;;;9.50;57.20;;;;;;6788738;87;20533;-80
2022/03/12 01:48:01;;;;;;;7.68;3.70;;;9.40;57.10;;;;;;6781706;87;20605;-75
2022/03/12 01:58:03;;;;;;;9.05;4.40;;;9.40;58.00;;;;;;6774239;87;20187;-78
2022/03/12 02:08:05;;;;;;;7.50;4.32;;;9.30;57.60;;;;;;6774391;87;20566;-78
2022/03/12 02:18:06;;;;;;;10.98;4.72;;;9.40;57.90;;;;;;6780486;87;20220;-76
2022/03/12 02:28:16;;;;;;;9.82;4.25;;;9.20;58.20;;;;;;6771512;87;20691;-77
2022/03/12 02:38:19;;;;;;;11.32;4.22;;;9.20;58.50;;;;;;6770486;87;20183;-77
2022/03/12 02:48:20;;;;;;;8.88;4.75;;;9.10;58.60;;;;;;6779708;87;20555;-77
2022/03/12 02:58:20;;;;;;;10.53;4.20;;;9.10;59.10;;;;;;6774206;87;20203;-77
2022/03/12 03:08:22;;;;;;;12.60;4.95;;;9.10;59.50;;;;;;6777179;87;20507;-77
2022/03/12 03:18:24;;;;;;;10.32;4.30;;;9.00;59.50;;;;;;6782950;87;20221;-77
2022/03/12 03:28:25;;;;;;;9.63;4.80;;;9.00;59.90;;;;;;6782029;87;20212;-77
2022/03/12 03:38:25;;;;;;;8.52;4.90;;;8.90;60.60;;;;;;6780505;87;20576;-77
2022/03/12 03:48:26;;;;;;;10.88;4.93;;;8.90;61.00;;;;;;6780761;87;20199;-77
2022/03/12 03:58:30;;;;;;;11.27;4.97;;;8.90;61.60;;;;;;6764359;87;20219;-77
2022/03/12 04:08:32;;;;;;;13.38;5.03;;;8.90;62.00;;;;;;6781793;87;20650;-77
2022/03/12 04:18:35;;;;;;;8.45;4.55;;;8.90;62.80;;;;;;6779347;87;20285;-77
2022/03/12 04:28:36;;;;;;;10.82;5.50;;;8.80;63.20;;;;;;6766270;87;20219;-77
2022/03/12 04:38:37;;;;;;;8.73;4.85;;;8.80;64.00;;;;;;6778449;87;20743;-77
2022/03/12 04:48:37;;;;;;;8.23;4.15;;;8.90;64.80;;;;;;6782715;87;20191;-77
2022/03/12 04:58:38;;;;;;;10.43;4.82;;;8.70;65.30;;;;;;6769163;87;20639;-77
2022/03/12 05:08:39;;;;;;;9.98;4.87;;;8.60;66.40;;;;;;6774603;87;20312;-76
2022/03/12 05:18:41;;;;;;;8.75;4.90;;;8.50;67.60;;;;;;6781231;87;20812;-77
2022/03/12 05:28:42;;;;;;;16.33;5.57;;;8.40;68.90;;;;;;6767701;77;20279;-73
2022/03/12 05:38:42;;;;;;;11.18;5.05;;;8.40;70.10;;;;;;6757909;87;20167;-71
2022/03/12 05:48:46;;;;;;;8.15;4.37;;;8.50;71.10;;;;;;6767407;87;20618;-73
2022/03/12 05:58:47;;;;;;;9.30;4.43;;;8.50;72.40;;;;;;6771018;87;20228;-72
2022/03/12 06:08:47;;;;;;;9.20;4.78;;;8.40;73.90;;;;;;6770869;87;20688;-73
2022/03/12 06:18:48;;;;;;;9.93;4.95;;;8.30;75.50;;;;;;6763895;87;20203;-73
2022/03/12 06:28:48;;;;;;;12.98;5.03;;;8.30;76.70;;;;;;6773785;87;20302;-74
2022/03/12 06:38:49;;;;;;;9.95;4.90;;;8.40;77.80;;;;;;6764972;87;20184;-72
2022/03/12 06:48:49;;;;;;;11.23;5.30;;;8.60;79.30;;;;;;6764784;87;20200;-73
2022/03/12 06:58:50;;;;;;;8.95;4.95;;;8.90;80.00;;;;;;6766664;87;20908;-74
2022/03/12 07:08:51;;;;;;;10.63;4.68;;;8.80;80.90;;;;;;6768093;87;20202;-74
2022/03/12 07:18:51;;;;;;;8.48;4.62;;;8.90;81.00;;;;;;6765793;87;20207;-72
2022/03/12 07:28:52;;;;;;;11.12;4.93;;;9.10;80.80;;;;;;6764390;87;20433;-72
2022/03/12 07:38:52;;;;;;;8.07;4.47;;;9.50;80.00;;;;;;6766440;87;20172;-72
2022/03/12 07:48:53;;;;;;;10.48;5.00;;;9.70;79.60;;;;;;6765883;87;20787;-72
2022/03/12 07:58:55;;;;;;;9.52;5.20;;;10.00;80.10;;;;;;6769757;87;20508;-72
2022/03/12 08:08:57;;;;;;;10.20;4.90;;;10.50;79.60;;;;;;6756863;87;20212;-71
2022/03/12 08:18:57;;;;;;;9.32;4.50;;;10.90;80.00;;;;;;6758021;87;20202;-75
2022/03/12 08:28:58;;;;;;;9.93;4.70;;;11.80;78.30;;;;;;6766246;87;20212;-73
2022/03/12 08:38:59;;;;;;;9.00;5.13;;;12.20;78.40;;;;;;6758645;87;20184;-75
2022/03/12 08:48:59;;;;;;;11.07;4.78;;;12.20;79.70;;;;;;6763478;87;20197;-75
2022/03/12 08:59:00;;;;;;;9.95;4.53;;;12.00;81.10;;;;;;6759850;87;20298;-76
2022/03/12 09:09:00;;;;;;;9.60;5.28;;;12.60;80.50;;;;;;6763243;87;20610;-75
2022/03/12 09:19:01;;;;;;;9.83;5.50;;;13.30;79.40;;;;;;6766942;87;20230;-74
2022/03/12 09:29:03;;;;;;;12.00;5.45;;;13.20;79.90;;;;;;6763543;87;20514;-76
2022/03/12 09:39:06;;;;;;;8.82;4.97;;;13.80;79.70;;;;;;6763360;87;20211;-75
2022/03/12 09:49:11;;;;;;;9.98;5.62;;;14.60;78.50;;;;;;6761043;87;20188;-76
2022/03/12 09:59:12;;;;;;;9.33;5.27;;;14.50;78.20;;;;;;6761763;87;20196;-74
2022/03/12 10:09:13;;;;;;;7.82;4.32;;;15.00;78.40;;;;;;6763015;87;20200;-74
2022/03/12 10:19:13;;;;;;;8.40;4.97;;;14.40;81.00;;;;;;6765252;87;20309;-76
2022/03/12 10:29:14;;;;;;;9.70;5.07;;;15.40;79.30;;;;;;6763656;87;20215;-76
2022/03/12 10:39:16;;;;;;;8.63;5.35;;;14.80;79.50;;;;;;6755158;87;20207;-75
2022/03/12 10:49:23;;;;;;;9.18;4.90;;;14.10;83.20;;;;;;6758649;87;20192;-76
2022/03/12 10:59:26;;;;;;;7.60;4.62;;;14.90;81.50;;;;;;6769814;87;20211;-74
2022/03/12 11:09:39;;;;;;;11.10;5.43;;;14.10;85.10;;;;;;6750829;87;20211;-76
2022/03/12 11:19:42;;;;;;;9.20;4.93;;;14.90;82.10;;;;;;6748199;87;20656;-76
2022/03/12 11:29:55;;;;;;;8.88;5.65;;;14.60;82.80;;;;;;6765592;87;20231;-75
2022/03/12 11:39:59;;;;;;;10.30;5.10;;;14.80;82.80;;;;;;6752140;87;20375;-74
2022/03/12 11:50:03;;;;;;;9.35;4.85;;;14.90;82.20;;;;;;6753209;87;20192;-75
2022/03/12 12:00:11;;;;;;;24.35;13.85;;;15.00;82.60;;;;;;6751562;87;20313;-74
2022/03/12 12:10:14;;;;;;;10.32;5.07;;;15.50;81.40;;;;;;6782628;87;20220;-75
2022/03/12 12:20:18;;;;;;;8.98;4.20;;;15.60;82.00;;;;;;6765747;87;20200;-75
2022/03/12 12:30:24;;;;;;;9.68;4.35;;;15.50;81.20;;;;;;6749941;87;20320;-75
2022/03/12 12:40:29;;;;;;;7.82;4.45;;;16.00;81.30;;;;;;6770329;87;20285;-75
2022/03/12 12:50:30;;;;;;;6.27;3.40;;;15.90;80.30;;;;;;6760357;87;20667;-75
2022/03/12 13:00:32;;;;;;;6.22;3.83;;;16.30;79.60;;;;;;6753052;87;20173;-74
2022/03/12 13:10:33;;;;;;;7.65;3.85;;;15.60;82.30;;;;;;6756515;87;20266;-75
2022/03/12 13:20:41;;;;;;;9.60;4.57;;;15.30;80.90;;;;;;6756714;87;20249;-75
2022/03/12 13:30:41;;;;;;;7.95;4.50;;;15.00;82.30;;;;;;6758531;87;20255;-75
2022/03/12 13:40:42;;;;;;;9.20;4.62;;;15.10;82.40;;;;;;6760874;87;20180;-75
2022/03/12 13:50:44;;;;;;;6.82;4.40;;;15.40;80.40;;;;;;6743553;87;20188;-75
2022/03/12 14:00:46;;;;;;;7.95;4.75;;;15.30;80.50;;;;;;6757217;87;20381;-75
2022/03/12 14:10:50;;;;;;;8.38;4.50;;;15.70;79.40;;;;;;6752627;87;20311;-74
2022/03/12 14:20:51;;;;;;;8.80;5.00;;;15.50;79.10;;;;;;6756982;87;20217;-75
2022/03/12 14:30:52;;;;;;;10.18;4.87;;;15.40;79.50;;;;;;6754114;87;20198;-75
2022/03/12 14:40:52;;;;;;;6.28;4.20;;;14.80;81.40;;;;;;6758513;87;20649;-75
2022/03/12 14:50:58;;;;;;;9.48;4.82;;;14.70;80.90;;;;;;6753899;87;20346;-75
2022/03/12 15:00:59;;;;;;;8.80;5.25;;;15.00;80.40;;;;;;6751611;87;20207;-74
2022/03/12 15:11:04;;;;;;;8.30;4.87;;;14.50;79.50;;;;;;6748902;87;20263;-76
2022/03/12 15:21:14;;;;;;;10.90;5.50;;;14.50;79.80;;;;;;6750367;87;20235;-75
2022/03/12 15:31:17;;;;;;;10.52;4.97;;;14.30;80.00;;;;;;6748458;87;20189;-75
2022/03/12 15:41:20;;;;;;;11.95;5.65;;;14.40;79.70;;;;;;6743716;87;20183;-75
2022/03/12 15:51:22;;;;;;;9.95;5.43;;;14.20;80.10;;;;;;6748813;87;20407;-76
2022/03/12 16:01:23;;;;;;;9.93;5.85;;;14.30;80.30;;;;;;6769342;87;20832;-77
2022/03/12 16:11:23;;;;;;;9.02;5.25;;;14.20;80.00;;;;;;6749589;87;20297;-75
2022/03/12 16:21:24;;;;;;;11.88;5.55;;;13.90;79.80;;;;;;6748642;87;20191;-75
2022/03/12 16:31:24;;;;;;;14.57;7.22;;;13.80;80.60;;;;;;6750036;87;20642;-74
2022/03/12 16:41:25;;;;;;;12.52;5.57;;;13.60;81.90;;;;;;6752206;87;20193;-74
2022/03/12 16:51:27;;;;;;;10.75;5.40;;;13.30;82.90;;;;;;6748760;87;20211;-74
2022/03/12 17:01:28;;;;;;;9.15;4.90;;;13.20;83.20;;;;;;6754624;87;20348;-74
2022/03/12 17:11:30;;;;;;;9.50;5.87;;;13.00;84.90;;;;;;6746831;87;20325;-74
2022/03/12 17:21:31;;;;;;;8.70;5.07;;;12.70;85.10;;;;;;6756206;87;20196;-74
2022/03/12 17:31:32;;;;;;;8.98;5.40;;;12.50;85.40;;;;;;6748032;87;20330;-75
2022/03/12 17:41:39;;;;;;;11.40;5.90;;;12.40;85.50;;;;;;6742634;87;20175;-74
2022/03/12 17:51:42;;;;;;;13.50;5.47;;;12.20;86.00;;;;;;6747448;87;20508;-74
2022/03/12 18:01:43;;;;;;;10.07;5.62;;;12.10;86.60;;;;;;6750643;87;20208;-74
2022/03/12 18:11:44;;;;;;;12.68;6.22;;;11.80;87.20;;;;;;6749662;87;20666;-77
2022/03/12 18:21:50;;;;;;;12.75;6.72;;;11.70;86.60;;;;;;6745969;87;20743;-75
2022/03/12 18:31:50;;;;;;;16.20;6.60;;;11.50;87.00;;;;;;6746053;87;20266;-74
2022/03/12 18:41:51;;;;;;;13.93;7.18;;;11.40;86.80;;;;;;6742759;87;20656;-75
2022/03/12 18:51:51;;;;;;;14.73;7.20;;;11.20;87.20;;;;;;6745247;87;20192;-74
2022/03/12 19:01:52;;;;;;;14.87;7.25;;;11.00;87.90;;;;;;6747470;87;20199;-74
2022/03/12 19:11:55;;;;;;;15.60;7.45;;;10.80;88.20;;;;;;6745423;87;20199;-73
2022/03/12 19:21:56;;;;;;;16.73;7.90;;;10.70;88.90;;;;;;6742557;87;20204;-74
2022/03/12 19:31:58;;;;;;;16.27;9.18;;;10.50;89.60;;;;;;6740656;87;20251;-74
2022/03/12 19:42:01;;;;;;;12.95;7.68;;;10.40;89.80;;;;;;6755259;87;20205;-73
2022/03/12 19:52:01;;;;;;;15.93;7.62;;;10.30;89.80;;;;;;6750200;87;20409;-73
2022/03/12 20:02:03;;;;;;;15.65;7.80;;;10.20;89.70;;;;;;6750775;87;20180;-73
2022/03/12 20:12:07;;;;;;;15.02;7.95;;;10.10;90.00;;;;;;6748551;87;20185;-74
2022/03/12 20:22:09;;;;;;;15.38;7.72;;;9.90;90.50;;;;;;6753876;87;20194;-75
2022/03/12 20:32:11;;;;;;;16.20;8.05;;;9.80;90.70;;;;;;6749985;87;20239;-74
2022/03/12 20:42:13;;;;;;;19.02;8.88;;;9.70;90.80;;;;;;6749395;87;20690;-74
2022/03/12 20:52:14;;;;;;;20.98;8.95;;;9.70;90.90;;;;;;6747680;87;20233;-75
2022/03/12 21:02:15;;;;;;;16.98;8.73;;;9.60;91.10;;;;;;6746475;87;20229;-74
2022/03/12 21:12:17;;;;;;;18.83;9.52;;;9.70;91.20;;;;;;6743468;87;20621;-73
2022/03/12 21:22:18;;;;;;;19.15;10.00;;;9.50;91.70;;;;;;6742316;87;20322;-73
2022/03/12 21:32:19;;;;;;;17.70;9.48;;;9.40;92.40;;;;;;6747953;87;20242;-74
2022/03/12 21:42:26;;;;;;;18.95;9.60;;;9.30;92.90;;;;;;6762618;87;20188;-75
2022/03/12 21:52:26;;;;;;;;;;;9.20;93.30;;;;;;6748496;87;20176;-74
2022/03/12 22:02:28;;;;;;;19.65;9.20;;;9.20;93.40;;;;;;6748953;87;20073;-74
2022/03/12 22:12:29;;;;;;;19.15;8.20;;;9.20;93.50;;;;;;6751704;87;20270;-74
2022/03/12 22:22:31;;;;;;;18.33;8.60;;;9.20;93.50;;;;;;6752246;87;20270;-74
2022/03/12 22:32:31;;;;;;;15.18;8.68;;;9.10;93.80;;;;;;6749492;87;20205;-74
2022/03/12 22:42:33;;;;;;;16.50;8.33;;;8.90;94.60;;;;;;6744741;88;21134;-74
2022/03/12 22:52:34;;;;;;;16.60;8.63;;;8.80;95.10;;;;;;6761286;87;20638;-74
2022/03/12 23:02:34;;;;;;;16.30;8.65;;;8.70;95.70;;;;;;6751621;87;20221;-73
2022/03/12 23:12:35;;;;;;;19.33;9.25;;;8.60;95.80;;;;;;6743600;88;21011;-73
2022/03/12 23:22:36;;;;;;;16.25;9.00;;;8.30;97.30;;;;;;6758829;88;20194;-73
2022/03/12 23:32:37;;;;;;;17.08;8.90;;;7.90;99.10;;;;;;6763606;88;20373;-74
2022/03/12 23:42:40;;;;;;;17.92;9.15;;;7.80;99.90;;;;;;6747926;88;20189;-73
2022/03/12 23:52:41;;;;;;;17.17;8.95;;;7.80;99.90;;;;;;6747977;88;20184;-74
